Time;durP1;ratioP1;P1;durP2;ratioP2;P2;SDS_P1;SDS_P2;PMS_P1;PMS_P2;Temp;Humidity;BMP_temperature;BMP_pressure;BME280_temperature;BME280_humidity;BME280_pressure;Samples;Min_cycle;Max_cycle;Signal;HPM_P1;HPM_P2
2023/11/22 00:01:10;;;;;;;37.40;15.50;;;;;;;-2.06;68.99;99596.54;78265;1296;3048674;-71
2023/11/22 00:03:37;;;;;;;39.30;17.80;;;;;;;-2.12;68.95;99588.01;79545;1295;3011796;-70
2023/11/22 00:06:07;;;;;;;26.80;13.00;;;;;;;-2.10;69.16;99590.05;79005;1295;3011666;-75
2023/11/22 00:08:34;;;;;;;27.90;14.40;;;;;;;-2.27;69.82;99595.48;79635;1295;3013103;-69
2023/11/22 00:11:01;;;;;;;29.60;15.00;;;;;;;-2.21;69.68;99598.69;79516;1298;3013032;-73
2023/11/22 00:13:29;;;;;;;25.20;13.20;;;;;;;-2.27;69.61;99597.02;78301;1301;3049270;-73
2023/11/22 00:15:56;;;;;;;39.20;17.80;;;;;;;-2.29;69.94;99596.52;79584;1295;3013368;-69
2023/11/22 00:18:24;;;;;;;49.30;19.70;;;;;;;-2.28;70.19;99591.02;79431;1298;3011595;-71
2023/11/22 00:20:52;;;;;;;54.40;24.40;;;;;;;-2.19;70.46;99570.52;78276;1301;3049317;-66
2023/11/22 00:23:19;;;;;;;56.10;24.10;;;;;;;-2.17;70.67;99579.80;79507;1298;3013489;-67
2023/11/22 00:25:45;;;;;;;76.00;30.50;;;;;;;-2.20;70.63;99577.59;79412;1298;3011790;-70
2023/11/22 00:28:13;;;;;;;82.00;30.20;;;;;;;-2.28;71.07;99567.16;78219;1300;3026353;-74
2023/11/22 00:30:40;;;;;;;73.30;28.00;;;;;;;-2.37;71.16;99574.61;79587;1295;3013567;-70
2023/11/22 00:33:06;;;;;;;107.40;34.60;;;;;;;-2.36;71.73;99580.42;79594;1301;3011690;-70
2023/11/22 00:35:35;;;;;;;122.30;41.80;;;;;;;-2.42;71.69;99592.48;78228;1300;3026735;-69
2023/11/22 00:38:01;;;;;;;90.20;33.70;;;;;;;-2.30;71.55;99583.83;79517;1301;3013587;-66
2023/11/22 00:40:28;;;;;;;75.10;26.90;;;;;;;-2.24;71.09;99576.75;79565;1300;3013551;-71
2023/11/22 00:42:56;;;;;;;68.50;27.40;;;;;;;-2.36;71.24;99569.10;78233;1296;3050297;-73
2023/11/22 00:45:23;;;;;;;66.40;27.00;;;;;;;-2.43;71.70;99566.05;79450;1297;3018558;-70
2023/11/22 00:47:52;;;;;;;99.20;34.00;;;;;;;-2.37;71.41;99560.70;79507;1295;3011938;-72
2023/11/22 00:50:20;;;;;;;160.20;43.20;;;;;;;-2.32;71.19;99566.67;78377;1301;3049376;-66
2023/11/22 00:52:48;;;;;;;289.80;64.20;;;;;;;-2.39;71.05;99565.86;79756;1295;3013090;-72
2023/11/22 00:55:16;;;;;;;310.90;69.40;;;;;;;-2.36;71.17;99569.63;79470;1300;3011859;-69
2023/11/22 00:57:44;;;;;;;144.50;38.60;;;;;;;-2.34;71.22;99575.95;78138;1297;3051593;-67
2023/11/22 01:00:12;;;;;;;114.50;33.70;;;;;;;-2.35;71.05;99575.10;79394;1301;3012869;-66
2023/11/22 01:02:39;;;;;;;161.80;37.20;;;;;;;-2.42;71.26;99564.69;79483;1295;3011566;-69
2023/11/22 01:05:11;;;;;;;118.30;29.10;;;;;;;-2.27;71.17;99553.25;78201;1301;3050782;-70
2023/11/22 01:07:38;;;;;;;82.80;22.20;;;;;;;-2.28;70.92;99559.80;79501;1296;3011532;-71
2023/11/22 01:10:07;;;;;;;61.50;18.60;;;;;;;-2.23;70.77;99560.11;78977;1301;3011925;-70
2023/11/22 01:12:34;;;;;;;62.30;18.10;;;;;;;-2.10;70.26;99556.73;79500;1295;3013715;-69
2023/11/22 01:15:01;;;;;;;60.50;17.20;;;;;;;-1.98;70.37;99547.02;79444;1295;3011714;-72
2023/11/22 01:17:29;;;;;;;44.90;14.20;;;;;;;-1.89;70.25;99544.91;78214;1295;3049896;-69
2023/11/22 01:19:56;;;;;;;52.80;17.60;;;;;;;-1.82;69.97;99557.55;79636;1296;3012886;-70
2023/11/22 01:22:22;;;;;;;66.10;20.40;;;;;;;-1.77;70.49;99555.80;79607;1298;3011613;-67
2023/11/22 01:24:52;;;;;;;74.00;22.60;;;;;;;-1.72;71.01;99557.29;78323;1295;3025907;-70
2023/11/22 01:27:18;;;;;;;78.70;23.20;;;;;;;-1.69;70.70;99558.45;79586;1295;3013252;-70
2023/11/22 01:29:45;;;;;;;69.80;23.00;;;;;;;-1.60;70.90;99553.91;79606;1295;3011786;-69
2023/11/22 01:32:16;;;;;;;71.60;21.00;;;;;;;-1.52;70.47;99553.84;78302;1300;3049025;-73
2023/11/22 01:34:43;;;;;;;64.10;21.20;;;;;;;-1.42;70.42;99549.95;79546;1298;3013872;-68
2023/11/22 01:37:12;;;;;;;72.50;21.50;;;;;;;-1.37;70.75;99545.94;78980;1295;3013872;-68
2023/11/22 01:39:42;;;;;;;67.80;23.10;;;;;;;-1.31;70.83;99541.42;79425;1300;3013621;-67
2023/11/22 01:42:10;;;;;;;67.90;21.40;;;;;;;-1.27;70.62;99542.23;79001;1299;3011592;-67
2023/11/22 01:44:37;;;;;;;70.50;23.70;;;;;;;-1.24;70.61;99544.44;79615;1295;3012830;-71
2023/11/22 01:47:04;;;;;;;72.80;22.80;;;;;;;-1.19;70.68;99542.84;79590;1295;3011488;-71
2023/11/22 01:49:32;;;;;;;69.80;24.30;;;;;;;-1.14;70.94;99536.58;78306;1300;3028268;-72
2023/11/22 01:52:01;;;;;;;74.10;24.00;;;;;;;-1.15;71.12;99537.64;79535;1295;3012958;-70
2023/11/22 01:54:31;;;;;;;69.90;26.00;;;;;;;-1.14;71.57;99545.87;79003;1298;3011530;-75
2023/11/22 01:56:57;;;;;;;68.20;25.00;;;;;;;-1.14;71.69;99558.59;79548;1303;3018686;-69
2023/11/22 01:59:26;;;;;;;63.60;23.30;;;;;;;-1.10;71.27;99562.85;79286;1296;3011976;-73
2023/11/22 02:01:54;;;;;;;53.60;22.10;;;;;;;-1.04;71.37;99555.38;78176;1295;3049904;-70
2023/11/22 02:04:21;;;;;;;53.70;21.40;;;;;;;-1.01;70.63;99549.84;79440;1295;3014023;-74
2023/11/22 02:06:48;;;;;;;48.90;20.40;;;;;;;-0.98;70.41;99553.59;79635;1294;3013596;-69
2023/11/22 02:09:17;;;;;;;47.00;21.70;;;;;;;-1.01;70.93;99560.50;78495;1296;3050858;-66
2023/11/22 02:11:49;;;;;;;53.20;21.90;;;;;;;-1.01;71.23;99571.84;79716;1297;3014346;-69
2023/11/22 02:14:17;;;;;;;44.40;20.30;;;;;;;-1.00;71.53;99568.92;78515;1296;3067813;-68
2023/11/22 02:16:43;;;;;;;48.70;20.80;;;;;;;-0.96;71.35;99569.04;79794;1295;3013528;-68
2023/11/22 02:19:15;;;;;;;43.80;20.80;;;;;;;-0.94;71.51;99567.29;79563;1295;3013435;-67
2023/11/22 02:21:43;;;;;;;43.80;19.50;;;;;;;-0.92;71.30;99561.42;78463;1295;3052876;-68
2023/11/22 02:24:10;;;;;;;48.70;20.00;;;;;;;-0.94;71.38;99560.08;79643;1298;3013531;-73
2023/11/22 02:26:38;;;;;;;41.30;19.40;;;;;;;-0.92;71.90;99562.80;79640;1298;3013158;-72
2023/11/22 02:29:06;;;;;;;42.20;20.30;;;;;;;-0.95;72.11;99563.86;78448;1298;3068619;-70
2023/11/22 02:31:34;;;;;;;45.30;20.60;;;;;;;-0.95;72.22;99564.73;79834;1300;3013216;-67
2023/11/22 02:34:00;;;;;;;49.20;23.00;;;;;;;-0.91;72.80;99557.98;79558;1298;3011761;-70
2023/11/22 02:36:28;;;;;;;55.30;25.00;;;;;;;-0.89;72.57;99557.26;78429;1298;3053947;-69
2023/11/22 02:38:55;;;;;;;56.90;25.30;;;;;;;-0.89;72.50;99558.12;79609;1298;3013393;-69
2023/11/22 02:41:22;;;;;;;68.50;30.30;;;;;;;-0.90;72.69;99559.86;79828;1298;3011497;-70
2023/11/22 02:43:50;;;;;;;80.90;31.10;;;;;;;-0.96;72.90;99568.52;78501;1295;3026733;-68
2023/11/22 02:46:17;;;;;;;74.20;30.30;;;;;;;-1.00;73.46;99574.94;79963;1295;3018470;-69
2023/11/22 02:48:45;;;;;;;66.10;28.40;;;;;;;-1.04;73.36;99580.83;79568;1295;3013107;-68
2023/11/22 02:51:13;;;;;;;78.60;30.20;;;;;;;-1.05;73.66;99576.19;78538;1295;3052252;-70
2023/11/22 02:53:43;;;;;;;69.80;27.90;;;;;;;-1.00;73.80;99573.21;79651;1298;3013476;-73
2023/11/22 02:56:12;;;;;;;62.60;28.90;;;;;;;-0.98;74.37;99568.72;79211;1298;3011661;-69
2023/11/22 02:58:39;;;;;;;57.20;27.30;;;;;;;-1.05;75.13;99570.86;79688;1298;3013583;-68
2023/11/22 03:01:07;;;;;;;59.40;27.70;;;;;;;-1.01;75.49;99573.56;79802;1295;3011489;-69
2023/11/22 03:03:35;;;;;;;54.30;25.50;;;;;;;-1.03;75.61;99566.20;78262;1298;3055235;-72
2023/11/22 03:06:02;;;;;;;61.00;26.80;;;;;;;-1.03;75.59;99565.68;79719;1296;3013233;-68
2023/11/22 03:08:29;;;;;;;62.50;28.90;;;;;;;-1.04;75.91;99566.73;79575;1295;3013336;-70
2023/11/22 03:10:57;;;;;;;48.30;24.10;;;;;;;-0.98;75.54;99563.22;78526;1298;3051800;-69
2023/11/22 03:13:24;;;;;;;57.90;26.20;;;;;;;-0.97;75.23;99562.17;79596;1295;3013057;-71
2023/11/22 03:15:50;;;;;;;57.90;27.80;;;;;;;-0.96;75.57;99563.36;79560;1296;3013175;-70
2023/11/22 03:18:18;;;;;;;58.50;28.60;;;;;;;-0.94;75.88;99562.14;78421;1295;3026361;-72
2023/11/22 03:20:45;;;;;;;60.80;27.40;;;;;;;-0.94;76.20;99557.14;79706;1298;3018552;-73
2023/11/22 03:23:11;;;;;;;57.40;28.60;;;;;;;-0.98;76.45;99559.44;79632;1298;3011952;-72
2023/11/22 03:25:39;;;;;;;60.70;28.90;;;;;;;-0.95;76.96;99564.73;78400;1298;3026084;-72
2023/11/22 03:28:08;;;;;;;53.60;27.90;;;;;;;-0.96;77.27;99571.45;79784;1295;3013494;-72
2023/11/22 03:30:34;;;;;;;59.00;28.40;;;;;;;-0.94;77.89;99569.70;79596;1298;3013159;-71
2023/11/22 03:33:02;;;;;;;51.70;26.30;;;;;;;-0.89;78.25;99563.97;78430;1295;3055447;-72
2023/11/22 03:35:29;;;;;;;50.10;25.40;;;;;;;-0.86;78.14;99567.20;79732;1295;3013001;-70
2023/11/22 03:37:56;;;;;;;44.90;24.30;;;;;;;-0.84;78.00;99571.98;79844;1296;3013041;-73
2023/11/22 03:40:24;;;;;;;44.20;23.30;;;;;;;-0.83;78.34;99580.39;78522;1301;3025762;-74
2023/11/22 03:42:51;;;;;;;37.70;17.70;;;;;;;-0.81;78.52;99579.52;79586;1301;3019037;-68
2023/11/22 03:45:17;;;;;;;42.30;20.70;;;;;;;-0.25;77.41;99581.34;79511;1296;3011714;-72
2023/11/22 03:47:46;;;;;;;48.10;22.10;;;;;;;0.55;74.69;99575.41;78342;1295;3025956;-67
2023/11/22 03:50:14;;;;;;;65.60;24.20;;;;;;;0.71;73.44;99580.13;79767;1295;3012754;-68
2023/11/22 03:52:44;;;;;;;58.90;22.10;;;;;;;0.63;73.20;99583.87;79199;1296;3011849;-69
2023/11/22 03:55:11;;;;;;;67.40;26.40;;;;;;;0.48;73.77;99585.70;79678;1298;3012936;-68
2023/11/22 03:57:37;;;;;;;56.90;25.60;;;;;;;0.36;73.90;99583.85;79707;1298;3011685;-70
2023/11/22 04:00:06;;;;;;;52.30;24.10;;;;;;;0.20;74.41;99591.00;78547;1298;3068250;-73
2023/11/22 04:02:41;;;;;;;50.00;23.80;;;;;;;0.07;74.92;99596.38;79168;1295;3013482;-70
2023/11/22 04:05:11;;;;;;;41.50;21.30;;;;;;;-0.08;75.17;99597.80;79604;1295;3018339;-68
2023/11/22 04:07:40;;;;;;;40.80;20.90;;;;;;;-0.17;75.46;99600.17;79285;1295;3011304;-68
2023/11/22 04:10:07;;;;;;;40.70;20.90;;;;;;;-0.26;76.08;99602.54;79721;1295;3012893;-70
2023/11/22 04:12:34;;;;;;;40.00;20.00;;;;;;;-0.30;76.46;99601.91;79631;1298;3011662;-70
2023/11/22 04:15:02;;;;;;;45.90;21.00;;;;;;;-0.36;76.53;99596.84;78551;1298;3026146;-70
2023/11/22 04:17:29;;;;;;;38.50;20.00;;;;;;;-0.39;76.64;99594.27;79682;1298;3013351;-73
2023/11/22 04:19:55;;;;;;;42.60;21.40;;;;;;;-0.39;76.75;99592.56;79677;1298;3011844;-72
2023/11/22 04:22:23;;;;;;;45.40;22.20;;;;;;;-0.39;76.61;99593.59;78507;1298;3056498;-69
2023/11/22 04:24:50;;;;;;;42.00;21.50;;;;;;;-0.45;76.79;99594.70;79771;1298;3014413;-68
2023/11/22 04:27:17;;;;;;;39.10;20.80;;;;;;;-0.50;76.40;99588.23;79908;1295;3011946;-68
2023/11/22 04:29:45;;;;;;;41.10;22.50;;;;;;;-0.58;76.70;99590.92;78572;1298;3026365;-70
2023/11/22 04:32:12;;;;;;;47.20;22.10;;;;;;;-0.56;76.61;99592.29;79735;1297;3013482;-68
2023/11/22 04:34:38;;;;;;;43.60;22.30;;;;;;;-0.54;76.31;99592.08;79663;1296;3011736;-67
2023/11/22 04:37:06;;;;;;;44.70;21.40;;;;;;;-0.52;75.94;99593.09;78607;1295;3055116;-68
2023/11/22 04:39:33;;;;;;;45.20;22.40;;;;;;;-0.58;75.43;99594.55;79580;1296;3018740;-68
2023/11/22 04:42:00;;;;;;;42.80;20.60;;;;;;;-0.61;75.07;99594.92;79631;1295;3011792;-68
2023/11/22 04:44:28;;;;;;;33.90;19.30;;;;;;;-0.58;75.18;99592.30;78585;1298;3025978;-76
2023/11/22 04:46:55;;;;;;;42.90;19.80;;;;;;;-0.62;74.95;99593.91;79790;1298;3013556;-70
2023/11/22 04:49:21;;;;;;;33.30;18.00;;;;;;;-0.73;75.27;99590.09;79683;1295;3011424;-69
2023/11/22 04:51:49;;;;;;;34.10;18.00;;;;;;;-0.75;75.66;99595.95;78591;1296;3025591;-73
2023/11/22 04:54:17;;;;;;;32.30;18.00;;;;;;;-0.73;76.00;99594.40;79799;1296;3018720;-71
2023/11/22 04:56:43;;;;;;;36.30;17.50;;;;;;;-0.72;76.24;99593.35;79568;1296;3011911;-69
2023/11/22 04:59:11;;;;;;;33.10;16.70;;;;;;;-0.71;76.67;99597.64;78561;1299;3025907;-67
2023/11/22 05:01:38;;;;;;;32.20;16.70;;;;;;;-0.68;76.99;99597.94;79725;1295;3012842;-70
2023/11/22 05:04:05;;;;;;;27.90;16.60;;;;;;;-0.69;76.49;99605.52;79849;1296;3013059;-67
2023/11/22 05:06:33;;;;;;;26.40;14.20;;;;;;;-0.70;75.76;99608.64;78439;1295;3025149;-67
2023/11/22 05:09:00;;;;;;;29.70;14.10;;;;;;;-0.77;74.24;99616.61;79709;1295;3015532;-67
2023/11/22 05:11:26;;;;;;;24.60;13.20;;;;;;;-0.79;73.88;99624.91;79647;1297;3011684;-70
2023/11/22 05:13:54;;;;;;;24.30;13.50;;;;;;;-0.79;73.01;99624.58;78433;1298;3028781;-68
2023/11/22 05:16:21;;;;;;;23.30;11.20;;;;;;;-0.86;72.95;99624.29;79661;1296;3013321;-67
2023/11/22 05:18:48;;;;;;;26.20;13.20;;;;;;;-0.88;73.21;99625.87;79617;1298;3013458;-69
2023/11/22 05:21:16;;;;;;;26.10;13.50;;;;;;;-0.91;73.23;99623.84;78437;1295;3027242;-68
2023/11/22 05:23:43;;;;;;;29.40;13.30;;;;;;;-0.88;73.46;99629.30;79783;1298;3014094;-68
2023/11/22 05:26:10;;;;;;;26.10;14.00;;;;;;;-0.87;73.38;99631.87;79610;1296;3011362;-73
2023/11/22 05:28:38;;;;;;;25.80;14.70;;;;;;;-0.94;73.47;99635.05;78479;1305;3051929;-68
2023/11/22 05:31:05;;;;;;;22.80;13.90;;;;;;;-0.92;73.71;99632.80;79690;1295;3012775;-70
2023/11/22 05:33:32;;;;;;;26.50;13.50;;;;;;;-0.96;73.71;99635.25;79591;1295;3012939;-74
2023/11/22 05:36:00;;;;;;;24.20;12.20;;;;;;;-1.01;73.80;99632.20;78547;1296;3025954;-71
2023/11/22 05:38:26;;;;;;;25.00;13.30;;;;;;;-1.04;74.42;99642.20;79717;1295;3013440;-72
2023/11/22 05:40:53;;;;;;;24.10;13.00;;;;;;;-1.08;74.58;99640.00;79641;1296;3011706;-72
2023/11/22 05:43:25;;;;;;;26.40;14.00;;;;;;;-1.11;74.92;99637.30;78383;1298;3026856;-71
2023/11/22 05:45:53;;;;;;;;;;;;;;;-1.11;75.20;99642.11;79491;1300;3011735;-68
2023/11/22 05:48:21;;;;;;;24.90;13.50;;;;;;;-1.16;75.89;99655.05;78271;1301;3068692;-68
2023/11/22 05:50:48;;;;;;;26.90;14.20;;;;;;;-1.16;75.72;99653.84;79564;1295;3013054;-72
2023/11/22 05:53:19;;;;;;;27.90;14.70;;;;;;;-1.13;75.72;99651.76;79613;1294;3011889;-72
2023/11/22 05:55:48;;;;;;;29.10;14.60;;;;;;;-1.17;75.19;99653.34;78350;1296;3051775;-72
2023/11/22 05:58:18;;;;;;;27.30;15.50;;;;;;;-1.19;75.47;99653.70;79558;1299;3013006;-70
2023/11/22 06:00:47;;;;;;;27.00;15.20;;;;;;;-1.22;75.65;99658.19;78422;1300;3052130;-72
2023/11/22 06:03:13;;;;;;;28.90;14.90;;;;;;;-1.23;76.52;99654.95;79717;1298;3013493;-73
2023/11/22 06:05:40;;;;;;;27.70;14.40;;;;;;;-1.23;77.15;99651.52;79761;1298;3013115;-67
2023/11/22 06:08:12;;;;;;;32.50;15.00;;;;;;;-1.17;77.14;99646.64;78468;1298;3028712;-69
2023/11/22 06:10:41;;;;;;;24.70;13.70;;;;;;;-1.17;77.05;99652.83;79770;1295;3011923;-66
2023/11/22 06:13:10;;;;;;;26.00;13.90;;;;;;;-1.19;76.76;99653.86;78481;1298;3050000;-66
2023/11/22 06:15:37;;;;;;;29.70;15.20;;;;;;;-1.21;76.48;99659.57;79877;1298;3012964;-67
2023/11/22 06:18:04;;;;;;;28.80;13.00;;;;;;;-1.28;76.55;99660.14;79529;1299;3011858;-67
2023/11/22 06:20:32;;;;;;;29.80;12.40;;;;;;;-1.30;76.16;99661.72;78559;1296;3052039;-67
2023/11/22 06:22:58;;;;;;;25.70;12.70;;;;;;;-1.30;76.01;99658.96;79678;1295;3013428;-71
2023/11/22 06:25:25;;;;;;;24.20;12.70;;;;;;;-1.28;76.15;99664.45;79674;1295;3011586;-69
2023/11/22 06:27:53;;;;;;;21.20;12.00;;;;;;;-1.27;76.13;99666.16;78436;1308;3028219;-69
2023/11/22 06:30:20;;;;;;;25.60;13.20;;;;;;;-1.26;76.21;99660.48;79698;1298;3013220;-67
2023/11/22 06:32:47;;;;;;;23.40;11.50;;;;;;;-1.23;76.08;99666.45;79649;1297;3011542;-71
2023/11/22 06:35:14;;;;;;;23.50;11.00;;;;;;;-1.22;75.84;99668.67;78411;1298;3026618;-69
2023/11/22 06:37:41;;;;;;;26.00;12.60;;;;;;;-1.22;76.12;99668.85;79811;1299;3019038;-68
2023/11/22 06:40:09;;;;;;;27.10;13.10;;;;;;;-1.23;76.38;99662.00;79600;1298;3011673;-68
2023/11/22 06:42:37;;;;;;;26.30;13.90;;;;;;;-1.22;76.07;99651.84;78316;1301;3048665;-66
2023/11/22 06:45:09;;;;;;;22.20;12.80;;;;;;;-1.24;76.34;99651.17;79635;1301;3018983;-72
2023/11/22 06:47:37;;;;;;;26.60;14.80;;;;;;;-1.21;76.28;99651.98;78549;1298;3069667;-70
2023/11/22 06:50:08;;;;;;;25.80;14.40;;;;;;;-1.22;76.85;99648.06;79696;1293;3013122;-68
2023/11/22 06:52:40;;;;;;;27.50;16.30;;;;;;;-1.21;76.55;99650.29;78443;1299;3049248;-66
2023/11/22 06:55:08;;;;;;;30.20;17.10;;;;;;;-1.23;76.68;99649.27;79658;1299;3011445;-66
2023/11/22 06:57:37;;;;;;;29.80;14.80;;;;;;;-1.20;76.72;99653.54;78707;1296;3049613;-67
2023/11/22 07:00:05;;;;;;;30.60;17.00;;;;;;;-1.12;76.69;99653.98;79703;1297;3019067;-71
2023/11/22 07:02:36;;;;;;;27.30;16.00;;;;;;;-1.14;76.63;99652.63;79251;1298;3011365;-71
2023/11/22 07:05:03;;;;;;;29.00;16.80;;;;;;;-1.14;77.06;99643.68;79627;1298;3013610;-71
2023/11/22 07:07:30;;;;;;;25.40;14.70;;;;;;;-1.17;76.80;99642.34;79749;1295;3011481;-69
2023/11/22 07:09:58;;;;;;;30.70;15.30;;;;;;;-1.21;76.72;99644.61;78488;1299;3049485;-70
2023/11/22 07:12:26;;;;;;;29.50;14.60;;;;;;;-1.20;76.50;99646.14;79599;1295;3013009;-71
2023/11/22 07:14:53;;;;;;;28.90;14.40;;;;;;;-1.21;76.83;99647.70;79938;1294;3011968;-69
2023/11/22 07:17:22;;;;;;;21.10;11.60;;;;;;;-1.23;76.46;99649.10;78712;1299;3051621;-70
2023/11/22 07:19:49;;;;;;;22.90;10.70;;;;;;;-1.30;76.24;99657.42;79795;1300;3013367;-68
2023/11/22 07:22:19;;;;;;;18.80;10.10;;;;;;;-1.29;75.95;99666.34;79624;1298;3011743;-70
2023/11/22 07:24:54;;;;;;;21.20;10.90;;;;;;;-1.24;75.67;99663.89;78684;1298;3049281;-70
2023/11/22 07:27:25;;;;;;;18.60;10.30;;;;;;;-1.22;75.18;99661.29;79437;1296;3011650;-72
2023/11/22 07:29:52;;;;;;;16.80;9.60;;;;;;;-1.19;74.64;99656.98;79955;1295;3011655;-71
2023/11/22 07:32:21;;;;;;;19.60;9.80;;;;;;;-1.13;74.33;99652.09;79350;1295;3013542;-73
2023/11/22 07:34:48;;;;;;;20.70;9.80;;;;;;;-1.09;74.42;99653.96;79754;1299;3014038;-72
2023/11/22 07:37:16;;;;;;;19.80;10.70;;;;;;;-1.06;74.47;99656.15;79761;1298;3013717;-70
2023/11/22 07:39:44;;;;;;;21.60;11.40;;;;;;;-0.97;74.35;99657.79;78413;1299;3051961;-69
2023/11/22 07:42:10;;;;;;;21.10;11.60;;;;;;;-0.95;74.09;99659.14;79829;1298;3013137;-67
2023/11/22 07:44:37;;;;;;;26.20;11.50;;;;;;;-0.93;74.00;99659.11;79791;1298;3011458;-67
2023/11/22 07:47:08;;;;;;;22.90;10.90;;;;;;;-0.97;73.52;99657.09;78309;1298;3027325;-69
2023/11/22 07:49:37;;;;;;;25.30;10.50;;;;;;;-1.01;73.66;99653.52;79974;1296;3011742;-70
2023/11/22 07:52:06;;;;;;;25.60;9.30;;;;;;;-1.03;73.72;99657.50;78459;1302;3051568;-73
2023/11/22 07:54:35;;;;;;;25.40;8.30;;;;;;;-1.01;73.55;99656.63;79834;1298;3013239;-71
2023/11/22 07:57:03;;;;;;;30.30;7.90;;;;;;;-1.01;73.11;99659.20;78598;1298;3028285;-72
2023/11/22 07:59:30;;;;;;;17.80;7.80;;;;;;;-0.97;72.33;99659.33;79717;1298;3011849;-68
2023/11/22 08:03:45;;;;;;;14.10;7.90;;;;;;;-0.78;71.71;99661.54;80006;1302;3013077;-67
2023/11/22 08:06:13;;;;;;;13.90;7.10;;;;;;;-0.78;71.45;99653.45;79281;1304;3013087;-68
2023/11/22 08:08:41;;;;;;;16.30;7.70;;;;;;;-0.77;71.41;99653.27;78063;1302;3025925;-68
2023/11/22 08:11:17;;;;;;;14.50;7.60;;;;;;;-0.74;71.62;99655.64;79323;1306;3013218;-71
2023/11/22 08:13:47;;;;;;;16.60;8.30;;;;;;;-0.77;71.63;99650.34;78066;1303;3069252;-69
2023/11/22 08:16:14;;;;;;;16.30;8.30;;;;;;;-0.82;71.69;99650.41;76782;1299;6552816;-72
2023/11/22 08:18:42;;;;;;;13.20;8.30;;;;;;;-0.83;72.11;99654.19;79740;1299;3011809;-73
2023/11/22 08:21:10;;;;;;;16.40;8.60;;;;;;;-0.87;72.51;99656.98;78288;1298;3052312;-70
2023/11/22 08:23:37;;;;;;;14.10;8.10;;;;;;;-0.76;72.35;99657.73;79587;1300;3013110;-71
2023/11/22 08:26:05;;;;;;;18.80;10.10;;;;;;;-0.70;72.16;99657.83;79616;1300;3012706;-72
2023/11/22 08:28:34;;;;;;;18.00;9.70;;;;;;;-0.77;71.88;99663.42;78233;1301;3069531;-70
2023/11/22 08:31:01;;;;;;;17.30;8.80;;;;;;;-0.75;72.10;99653.94;79676;1302;3013309;-69
2023/11/22 08:33:28;;;;;;;18.60;9.50;;;;;;;-0.65;71.81;99650.90;79598;1298;3011626;-75
2023/11/22 08:35:59;;;;;;;15.80;9.20;;;;;;;-0.66;71.73;99640.92;78542;1299;3051981;-72
2023/11/22 08:38:26;;;;;;;21.50;10.30;;;;;;;-0.62;71.71;99651.55;79397;1301;3011595;-73
2023/11/22 08:40:57;;;;;;;22.40;9.90;;;;;;;-0.57;71.31;99654.58;78202;1301;3026794;-77
2023/11/22 08:43:25;;;;;;;18.20;9.50;;;;;;;-0.48;70.90;99656.70;79562;1300;3011639;-77
2023/11/22 08:45:53;;;;;;;21.70;8.80;;;;;;;-0.50;70.24;99649.84;78155;1296;3026730;-76
2023/11/22 08:48:20;;;;;;;16.60;8.60;;;;;;;-0.44;69.38;99649.09;79455;1301;3013559;-76
2023/11/22 08:50:48;;;;;;;15.60;8.30;;;;;;;-0.42;68.96;99645.60;79639;1298;3011546;-76
2023/11/22 08:53:18;;;;;;;16.20;8.40;;;;;;;-0.39;68.43;99644.73;78538;1299;3051959;-75
2023/11/22 08:55:46;;;;;;;13.70;7.20;;;;;;;-0.32;67.76;99647.72;79858;1299;3013108;-76
2023/11/22 08:58:15;;;;;;;13.40;7.50;;;;;;;-0.31;67.17;99646.15;78982;1301;3011840;-78
2023/11/22 09:00:42;;;;;;;13.40;8.20;;;;;;;-0.29;66.95;99648.20;79653;1297;3013010;-72
2023/11/22 09:03:12;;;;;;;12.40;7.90;;;;;;;-0.26;67.16;99642.31;79518;1298;3011627;-76
2023/11/22 09:05:40;;;;;;;14.60;7.30;;;;;;;-0.21;66.73;99643.45;78439;1299;3056603;-73
2023/11/22 09:08:12;;;;;;;11.80;6.60;;;;;;;-0.13;65.16;99639.89;79381;1297;3012908;-76
2023/11/22 09:10:41;;;;;;;10.80;6.10;;;;;;;-0.17;64.63;99631.69;78093;1298;3049499;-72
2023/11/22 09:13:08;;;;;;;10.80;5.80;;;;;;;-0.09;63.61;99626.06;79662;1297;3014067;-76
2023/11/22 09:15:36;;;;;;;9.80;5.40;;;;;;;-0.06;62.74;99632.23;79265;1303;3013203;-77
2023/11/22 09:18:04;;;;;;;8.60;5.20;;;;;;;0.02;61.84;99637.27;78336;1298;3049648;-74
2023/11/22 09:20:31;;;;;;;12.50;5.00;;;;;;;0.05;61.24;99627.91;79349;1301;3013424;-74
2023/11/22 09:22:58;;;;;;;11.10;5.30;;;;;;;0.17;61.17;99619.64;79347;1301;3013020;-78
2023/11/22 09:25:30;;;;;;;8.50;4.80;;;;;;;0.15;61.02;99618.30;78223;1297;3051200;-79
2023/11/22 09:28:00;;;;;;;9.30;4.80;;;;;;;0.17;60.25;99612.41;79443;1301;3013188;-72
2023/11/22 09:31:01;;;;;;;10.00;5.40;;;;;;;0.10;60.58;99616.29;78239;1301;3052475;-77
2023/11/22 09:33:29;;;;;;;9.80;5.40;;;;;;;0.23;61.01;99618.52;78232;1299;3067038;-74
2023/11/22 09:35:55;;;;;;;13.20;6.10;;;;;;;0.14;60.76;99619.17;79353;1299;3013728;-76
2023/11/22 09:38:22;;;;;;;10.00;5.50;;;;;;;0.14;60.27;99616.23;79422;1297;3011827;-73
2023/11/22 09:40:51;;;;;;;8.90;5.00;;;;;;;0.12;59.97;99609.55;78224;1301;3028494;-75
2023/11/22 09:43:20;;;;;;;10.30;5.40;;;;;;;0.21;59.68;99611.14;79484;1301;3014105;-73
2023/11/22 09:45:49;;;;;;;11.20;6.00;;;;;;;0.24;60.51;99614.36;79045;1300;3012872;-73
2023/11/22 09:48:20;;;;;;;10.80;5.80;;;;;;;0.25;60.40;99616.05;79506;1303;3013567;-76
2023/11/22 09:50:51;;;;;;;10.60;5.50;;;;;;;0.30;60.48;99615.99;78201;1299;3048989;-72
2023/11/22 09:53:44;;;;;;;12.30;6.10;;;;;;;0.40;60.22;99612.05;79483;1298;3011639;-73
2023/11/22 09:56:15;;;;;;;11.30;6.00;;;;;;;0.42;59.51;99596.83;78120;1301;3049652;-72
2023/11/22 09:58:45;;;;;;;11.70;6.60;;;;;;;0.38;59.58;99597.42;79408;1301;3011399;-72
2023/11/22 10:01:13;;;;;;;15.50;7.80;;;;;;;0.42;59.94;99601.84;78111;1299;3049133;-70
2023/11/22 10:03:40;;;;;;;15.30;7.10;;;;;;;0.43;59.69;99600.27;79483;1301;3013062;-73
2023/11/22 10:06:07;;;;;;;18.50;6.50;;;;;;;0.49;59.06;99589.64;79389;1301;3011483;-71
2023/11/22 10:08:38;;;;;;;14.10;7.30;;;;;;;0.48;58.60;99591.55;78298;1297;3026074;-67
2023/11/22 10:11:04;;;;;;;14.80;6.60;;;;;;;0.51;59.10;99597.88;79438;1296;3013223;-69
2023/11/22 10:13:34;;;;;;;17.20;7.10;;;;;;;0.48;59.30;99607.08;78920;1296;3013563;-71
2023/11/22 10:16:11;;;;;;;13.90;6.40;;;;;;;0.45;58.77;99600.40;79371;1300;3014336;-69
2023/11/22 10:18:41;;;;;;;14.30;6.40;;;;;;;0.46;59.01;99605.04;78210;1300;3053048;-70
2023/11/22 10:21:21;;;;;;;12.20;6.50;;;;;;;0.45;59.15;99604.36;79522;1300;3012939;-71
2023/11/22 10:23:51;;;;;;;15.80;6.40;;;;;;;0.42;58.83;99602.00;78303;1296;3071234;-69
2023/11/22 10:26:18;;;;;;;11.20;6.20;;;;;;;0.45;59.00;99603.17;79689;1300;3011691;-76
2023/11/22 10:28:47;;;;;;;16.00;6.60;;;;;;;0.45;58.44;99595.74;79269;1298;3013127;-71
2023/11/22 10:31:14;;;;;;;15.90;6.80;;;;;;;0.45;58.04;99599.52;79428;1301;3012863;-70
2023/11/22 10:33:43;;;;;;;14.30;6.60;;;;;;;0.42;57.69;99595.98;79547;1295;3013281;-70
2023/11/22 10:36:12;;;;;;;15.20;7.30;;;;;;;0.42;58.51;99593.38;78266;1298;3054201;-70
2023/11/22 10:38:39;;;;;;;18.50;9.80;;;;;;;0.41;58.43;99593.76;79637;1298;3015430;-68
2023/11/22 10:41:10;;;;;;;19.70;8.50;;;;;;;0.41;57.85;99590.66;79576;1294;3011776;-66
2023/11/22 10:43:39;;;;;;;14.80;7.10;;;;;;;0.36;57.63;99600.04;78365;1295;3055093;-67
2023/11/22 10:46:06;;;;;;;13.40;6.40;;;;;;;0.42;57.20;99602.88;79559;1295;3012758;-66
2023/11/22 10:48:33;;;;;;;12.80;6.30;;;;;;;0.37;57.49;99600.20;79342;1296;3013307;-70
2023/11/22 10:51:04;;;;;;;14.60;6.30;;;;;;;0.35;57.63;99594.71;78304;1297;3051595;-65
2023/11/22 10:53:35;;;;;;;10.20;5.70;;;;;;;0.29;57.64;99597.23;79330;1297;3012162;-69
2023/11/22 10:56:07;;;;;;;12.00;5.70;;;;;;;0.32;56.32;99602.52;78256;1295;3068355;-71
2023/11/22 10:58:34;;;;;;;9.80;5.70;;;;;;;0.27;56.06;99606.22;79322;1298;3011504;-70
2023/11/22 11:01:06;;;;;;;10.70;5.50;;;;;;;0.29;55.98;99611.52;78453;1298;3028767;-72
2023/11/22 11:03:38;;;;;;;16.80;6.70;;;;;;;0.30;56.11;99611.34;79587;1299;3013489;-71
2023/11/22 11:06:09;;;;;;;13.20;6.70;;;;;;;0.28;56.32;99612.58;78287;1299;3052990;-69
2023/11/22 11:08:38;;;;;;;11.60;6.40;;;;;;;0.38;56.54;99616.04;79521;1294;3011866;-68
2023/11/22 11:11:06;;;;;;;10.70;6.20;;;;;;;0.32;57.06;99609.41;78343;1298;3025375;-68